createdAt,value
2023-03-19T00:02:08.931Z,97823.72
2023-03-19T00:04:18.687Z,97823.94
2023-03-19T00:06:22.828Z,97823.25
2023-03-19T00:08:27.371Z,97827.50
2023-03-19T00:10:30.505Z,97830.84
2023-03-19T00:12:33.737Z,97832.50
2023-03-19T00:14:36.818Z,97835.94
2023-03-19T00:16:40.389Z,97837.72
2023-03-19T00:18:43.657Z,97837.72
2023-03-19T00:20:46.884Z,97836.06
2023-03-19T00:22:50.105Z,97834.16
2023-03-19T00:24:54.712Z,97834.16
2023-03-19T00:26:57.803Z,97836.06
2023-03-19T00:29:02.555Z,97838.78
2023-03-19T00:31:10.268Z,97834.50
2023-03-19T00:33:13.858Z,97842.66
2023-03-19T00:35:17.037Z,97844.69
2023-03-19T00:37:20.164Z,97846.44
2023-03-19T00:39:23.263Z,97847.41
2023-03-19T00:41:28.960Z,97848.22
2023-03-19T00:43:32.081Z,97850.94
2023-03-19T00:45:35.360Z,97850.94
2023-03-19T00:47:38.605Z,97844.16
2023-03-19T00:49:41.694Z,97853.78
2023-03-19T00:51:45.862Z,97848.56
2023-03-19T00:53:50.084Z,97845.38
2023-03-19T00:55:53.107Z,97852.13
2023-03-19T00:57:57.464Z,97848.09
2023-03-19T01:00:00.767Z,97850.81
2023-03-19T01:02:04.653Z,97852.72
2023-03-19T01:04:07.722Z,97846.63
2023-03-19T01:06:11.511Z,97850.22
2023-03-19T01:08:14.585Z,97847.72
2023-03-19T01:10:18.992Z,97846.16
2023-03-19T01:12:22.138Z,97850.44
2023-03-19T01:14:26.674Z,97848.06
2023-03-19T01:16:30.038Z,97848.06
2023-03-19T01:18:33.356Z,97838.44
2023-03-19T01:20:37.889Z,97846.38
2023-03-19T01:22:42.609Z,97845.44
2023-03-19T01:24:47.069Z,97841.28
2023-03-19T01:26:50.828Z,97847.41
2023-03-19T01:29:02.327Z,97844.00
2023-03-19T01:31:09.567Z,97846.72
2023-03-19T01:33:31.266Z,97847.75
2023-03-19T01:35:40.178Z,97854.66
2023-03-19T01:37:43.543Z,97848.38
2023-03-19T01:39:47.553Z,97849.22
2023-03-19T01:41:51.795Z,97849.31
2023-03-19T01:44:26.041Z,97849.44
2023-03-19T01:46:48.871Z,97844.31
2023-03-19T01:49:28.493Z,97847.75
2023-03-19T01:51:52.863Z,97849.44
2023-03-19T01:54:11.514Z,97862.47
2023-03-19T01:56:27.634Z,97866.66
2023-03-19T01:58:37.919Z,97867.56
2023-03-19T02:00:52.304Z,97870.28
2023-03-19T02:03:01.615Z,97876.56
2023-03-19T02:05:32.143Z,97883.44
2023-03-19T02:07:42.564Z,97879.69
2023-03-19T02:09:47.057Z,97885.00
2023-03-19T02:11:51.245Z,97892.09
2023-03-19T02:13:54.699Z,97897.41
2023-03-19T02:15:59.036Z,97900.13
2023-03-19T02:18:04.168Z,97905.13
2023-03-19T02:20:13.015Z,97906.00
2023-03-19T02:22:20.046Z,97901.47
2023-03-19T02:24:26.976Z,97905.88
2023-03-19T02:26:39.905Z,97904.19
2023-03-19T02:28:45.827Z,97904.31
2023-03-19T02:30:53.040Z,97927.06
2023-03-19T02:32:57.157Z,97926.22
2023-03-19T02:35:00.984Z,97922.06
2023-03-19T02:37:09.473Z,97928.94
2023-03-19T02:39:19.121Z,97922.06
2023-03-19T02:41:26.275Z,97927.50
2023-03-19T02:43:32.103Z,97928.44
2023-03-19T02:45:35.500Z,97933.66
2023-03-19T02:47:39.296Z,97937.09
2023-03-19T02:49:43.119Z,97937.09
2023-03-19T02:51:46.864Z,97932.94
2023-03-19T02:53:50.418Z,97944.31
2023-03-19T02:55:55.603Z,97946.81
2023-03-19T02:57:59.292Z,97934.69
2023-03-19T03:00:05.258Z,97939.81
2023-03-19T03:02:10.204Z,97942.41
2023-03-19T03:04:16.417Z,97934.81
2023-03-19T03:06:20.981Z,97936.59
2023-03-19T03:08:24.335Z,97936.81
2023-03-19T03:10:28.526Z,97937.75
2023-03-19T03:12:32.533Z,97937.03
2023-03-19T03:14:36.213Z,97933.69
2023-03-19T03:16:43.201Z,97940.28
2023-03-19T03:18:47.265Z,97943.84
2023-03-19T03:20:50.967Z,97945.38
2023-03-19T03:22:54.880Z,97947.16
2023-03-19T03:24:58.430Z,97951.34
2023-03-19T03:27:02.128Z,97956.84
2023-03-19T03:29:05.818Z,97961.53
2023-03-19T03:31:09.281Z,97957.72
2023-03-19T03:33:17.395Z,97955.88
2023-03-19T03:35:22.620Z,97954.69
2023-03-19T03:37:26.561Z,97958.06
2023-03-19T03:39:30.625Z,97962.09
2023-03-19T03:41:34.669Z,97957.28
2023-03-19T03:43:39.518Z,97963.94
2023-03-19T03:45:43.177Z,97964.53
2023-03-19T03:47:47.507Z,97959.31
2023-03-19T03:49:52.955Z,97965.28
2023-03-19T03:51:57.470Z,97960.78
2023-03-19T03:54:01.287Z,97964.84
2023-03-19T03:56:05.177Z,97966.38
2023-03-19T03:58:08.557Z,97962.00
2023-03-19T04:00:12.981Z,97962.00
2023-03-19T04:02:20.878Z,97962.00
2023-03-19T04:04:24.089Z,97962.00
2023-03-19T04:06:28.900Z,97955.78
2023-03-19T04:08:48.800Z,97949.09
2023-03-19T04:10:52.219Z,97943.38
2023-03-19T04:12:55.527Z,97942.66
2023-03-19T04:14:58.983Z,97945.16
2023-03-19T04:17:02.127Z,97949.09
2023-03-19T04:19:05.266Z,97954.31
2023-03-19T04:21:08.998Z,97945.66
2023-03-19T04:23:13.946Z,97951.72
2023-03-19T04:25:18.459Z,97951.00
2023-03-19T04:27:22.066Z,97947.06
2023-03-19T04:29:25.533Z,97946.75
2023-03-19T04:31:28.732Z,97958.16
2023-03-19T04:33:32.311Z,97948.16
2023-03-19T04:35:35.621Z,97955.34
2023-03-19T04:37:39.008Z,97959.84
2023-03-19T04:39:44.404Z,97961.75
2023-03-19T04:41:50.358Z,97961.84
2023-03-19T04:44:07.683Z,97961.00
2023-03-19T04:46:11.909Z,97960.28
2023-03-19T04:48:14.977Z,97966.22
2023-03-19T04:50:19.074Z,97968.81
2023-03-19T04:52:22.618Z,97966.31
2023-03-19T04:54:26.297Z,97972.59
2023-03-19T04:56:30.721Z,97978.53
2023-03-19T04:58:33.995Z,97980.31
2023-03-19T05:00:39.269Z,97987.06
2023-03-19T05:02:43.405Z,97984.47
2023-03-19T05:04:46.728Z,97983.63
2023-03-19T05:06:51.321Z,97986.13
2023-03-19T05:08:54.524Z,97993.13
2023-03-19T05:10:58.593Z,97987.06
2023-03-19T05:13:06.867Z,97992.19
2023-03-19T05:15:13.843Z,98000.66
2023-03-19T05:17:29.026Z,98001.56
2023-03-19T05:19:50.417Z,97998.25
2023-03-19T05:21:53.746Z,98000.09
2023-03-19T05:24:00.466Z,97998.56
2023-03-19T05:26:06.699Z,98003.50
2023-03-19T05:28:49.651Z,98004.09
2023-03-19T05:30:56.940Z,98006.00
2023-03-19T05:33:05.194Z,98005.53
2023-03-19T05:35:17.662Z,98005.31
2023-03-19T05:37:21.643Z,98011.72
2023-03-19T05:39:30.717Z,98005.44
2023-03-19T05:41:38.383Z,98017.53
2023-03-19T05:43:43.181Z,98018.25
2023-03-19T05:45:56.798Z,98015.53
2023-03-19T05:48:04.227Z,98009.28
2023-03-19T05:50:13.152Z,98013.56
2023-03-19T05:52:22.736Z,98014.41
2023-03-19T05:54:27.059Z,98013.25
2023-03-19T05:56:42.576Z,98013.03
2023-03-19T05:59:11.664Z,98018.75
2023-03-19T06:01:20.819Z,98015.44
2023-03-19T06:03:24.190Z,98018.03
2023-03-19T06:05:28.688Z,98024.09
2023-03-19T06:07:37.070Z,98025.97
2023-03-19T06:09:43.581Z,98025.13
2023-03-19T06:11:47.693Z,98030.22
2023-03-19T06:14:17.054Z,98027.63
2023-03-19T06:16:32.324Z,98037.94
2023-03-19T06:18:36.574Z,98040.56
2023-03-19T06:20:45.494Z,98044.03
2023-03-19T06:22:49.426Z,98049.03
2023-03-19T06:24:52.652Z,98054.25
2023-03-19T06:26:56.310Z,98052.47
2023-03-19T06:28:59.517Z,98052.78
2023-03-19T06:31:02.670Z,98054.56
2023-03-19T06:33:27.757Z,98054.47
2023-03-19T06:35:31.189Z,98061.22
2023-03-19T06:37:34.624Z,98055.88
2023-03-19T06:39:38.235Z,98063.50
2023-03-19T06:41:41.575Z,98059.97
2023-03-19T06:43:52.385Z,98062.47
2023-03-19T06:45:55.734Z,98064.75
2023-03-19T06:47:58.988Z,98065.38
2023-03-19T06:50:04.487Z,98061.50
2023-03-19T06:52:07.869Z,98063.03
2023-03-19T06:54:11.226Z,98062.72
2023-03-19T06:56:14.257Z,98058.84
2023-03-19T06:58:17.345Z,98053.09
2023-03-19T07:00:21.249Z,98069.03
2023-03-19T07:02:24.570Z,98062.53
2023-03-19T07:04:27.720Z,98070.88
2023-03-19T07:06:33.644Z,98068.66
2023-03-19T07:08:36.689Z,98068.13
2023-03-19T07:10:39.921Z,98072.47
2023-03-19T07:12:43.062Z,98073.47
2023-03-19T07:14:47.248Z,98080.31
2023-03-19T07:16:50.287Z,98079.63
2023-03-19T07:18:53.442Z,98076.31
2023-03-19T07:20:56.567Z,98079.31
2023-03-19T07:23:01.247Z,98078.75
2023-03-19T07:25:04.532Z,98088.00
2023-03-19T07:27:07.649Z,98089.00
2023-03-19T07:29:11.199Z,98095.09
2023-03-19T07:31:14.418Z,98090.09
2023-03-19T07:33:17.789Z,98093.66
2023-03-19T07:35:21.409Z,98102.50
2023-03-19T07:37:24.413Z,98102.25
2023-03-19T07:39:28.774Z,98110.00
2023-03-19T07:41:32.113Z,98102.72
2023-03-19T07:43:35.353Z,98104.91
2023-03-19T07:45:38.560Z,98098.97
2023-03-19T07:47:41.666Z,98106.94
2023-03-19T07:49:44.772Z,98114.81
2023-03-19T07:51:47.980Z,98112.28
2023-03-19T07:53:51.139Z,98115.00
2023-03-19T07:55:55.675Z,98111.19
2023-03-19T07:57:58.840Z,98108.63
2023-03-19T08:00:01.978Z,98110.59
2023-03-19T08:02:05.335Z,98111.38
2023-03-19T08:04:08.685Z,98113.41
2023-03-19T08:06:12.176Z,98110.53
2023-03-19T08:08:15.413Z,98104.22
2023-03-19T08:10:18.781Z,98113.34
2023-03-19T08:12:23.277Z,98109.66
2023-03-19T08:14:26.740Z,98116.09
2023-03-19T08:16:30.029Z,98115.81
2023-03-19T08:18:33.968Z,98109.72
2023-03-19T08:20:37.178Z,98112.94
2023-03-19T08:22:41.758Z,98118.63
2023-03-19T08:24:44.957Z,98110.25
2023-03-19T08:26:48.331Z,98119.25
2023-03-19T08:28:53.361Z,98116.00
2023-03-19T08:30:56.840Z,98123.09
2023-03-19T08:33:00.271Z,98116.53
2023-03-19T08:35:04.006Z,98129.00
2023-03-19T08:37:10.086Z,98118.13
2023-03-19T08:39:13.200Z,98123.78
2023-03-19T08:41:16.355Z,98119.97
2023-03-19T08:43:19.641Z,98119.69
2023-03-19T08:45:24.326Z,98119.56
2023-03-19T08:47:27.776Z,98109.88
2023-03-19T08:49:31.033Z,98117.06
2023-03-19T08:51:34.356Z,98117.75
2023-03-19T08:53:38.674Z,98116.56
2023-03-19T08:55:42.859Z,98115.44
2023-03-19T08:57:45.949Z,98124.88
2023-03-19T08:59:49.053Z,98124.16
2023-03-19T09:01:54.387Z,98130.25
2023-03-19T09:03:57.657Z,98128.78
2023-03-19T09:06:01.551Z,98122.88
2023-03-19T09:08:04.667Z,98126.63
2023-03-19T09:10:08.839Z,98119.69
2023-03-19T09:12:15.219Z,98128.31
2023-03-19T09:14:20.107Z,98131.91
2023-03-19T09:16:23.530Z,98133.72
2023-03-19T09:18:28.365Z,98134.41
2023-03-19T09:20:31.622Z,98133.06
2023-03-19T09:22:34.864Z,98126.41
2023-03-19T09:24:40.466Z,98133.06
2023-03-19T09:26:43.854Z,98131.97
2023-03-19T09:28:47.257Z,98120.78
2023-03-19T09:30:51.797Z,98122.59
2023-03-19T09:32:55.915Z,98124.00
2023-03-19T09:35:00.480Z,98120.28
2023-03-19T09:37:03.479Z,98130.41
2023-03-19T09:39:07.380Z,98134.44
2023-03-19T09:41:11.904Z,98136.72
2023-03-19T09:43:36.003Z,98138.50
2023-03-19T09:45:39.220Z,98137.38
2023-03-19T09:47:43.412Z,98133.06
2023-03-19T09:49:49.105Z,98144.09
2023-03-19T09:51:55.177Z,98134.91
2023-03-19T09:54:00.808Z,98135.75
2023-03-19T09:56:06.762Z,98131.06
2023-03-19T09:58:15.670Z,98122.28
2023-03-19T10:00:23.991Z,98125.59
2023-03-19T10:02:40.310Z,98127.75
2023-03-19T10:04:53.996Z,98121.50
2023-03-19T10:07:03.832Z,98119.72
2023-03-19T10:09:33.863Z,98118.34
2023-03-19T10:11:50.498Z,98132.97
2023-03-19T10:14:00.611Z,98127.38
2023-03-19T10:16:04.617Z,98124.00
2023-03-19T10:18:11.613Z,98123.38
2023-03-19T10:20:18.904Z,98118.84
2023-03-19T10:22:27.222Z,98119.25
2023-03-19T10:24:33.253Z,98121.44
2023-03-19T10:26:36.637Z,98122.38
2023-03-19T10:28:43.598Z,98110.69
2023-03-19T10:30:53.149Z,98109.44
2023-03-19T10:33:07.836Z,98107.16
2023-03-19T10:35:18.945Z,98101.88
2023-03-19T10:37:26.249Z,98103.44
2023-03-19T10:39:29.669Z,98105.59
2023-03-19T10:41:39.687Z,98103.25
2023-03-19T10:43:43.428Z,98093.16
2023-03-19T10:45:47.752Z,98079.84
2023-03-19T10:47:51.567Z,98087.13
2023-03-19T10:49:57.766Z,98079.22
2023-03-19T10:52:01.025Z,98081.69
2023-03-19T10:54:20.041Z,98080.56
2023-03-19T10:56:24.719Z,98075.97
2023-03-19T10:58:29.172Z,98069.88
2023-03-19T11:00:35.277Z,98071.22
2023-03-19T11:02:38.873Z,98065.97
2023-03-19T11:04:41.927Z,98065.47
2023-03-19T11:06:49.991Z,98070.09
2023-03-19T11:08:57.135Z,98067.09
2023-03-19T11:11:01.864Z,98066.41
2023-03-19T11:13:07.288Z,98066.63
2023-03-19T11:15:19.677Z,98058.19
2023-03-19T11:17:24.361Z,98063.78
2023-03-19T11:19:29.660Z,98055.88
2023-03-19T11:21:32.992Z,98055.81
2023-03-19T11:23:41.497Z,98056.44
2023-03-19T11:25:48.866Z,98053.13
2023-03-19T11:28:02.149Z,98048.66
2023-03-19T11:30:14.245Z,98041.41
2023-03-19T11:32:53.614Z,98049.34
2023-03-19T11:35:00.103Z,98041.75
2023-03-19T11:37:09.064Z,98049.84
2023-03-19T11:39:22.986Z,98047.84
2023-03-19T11:41:31.524Z,98038.94
2023-03-19T11:43:46.153Z,98037.28
2023-03-19T11:45:57.422Z,98038.59
2023-03-19T11:48:13.998Z,98044.97
2023-03-19T11:50:26.045Z,98040.06
2023-03-19T11:52:32.044Z,98031.28
2023-03-19T11:54:43.760Z,98023.97
2023-03-19T11:56:50.159Z,98029.13
2023-03-19T11:59:25.675Z,98026.13
2023-03-19T12:01:43.594Z,98022.06
2023-03-19T12:04:09.433Z,98012.41
2023-03-19T12:06:20.829Z,98021.75
2023-03-19T12:08:33.048Z,98015.22
2023-03-19T12:10:47.661Z,98013.94
2023-03-19T12:12:55.771Z,98004.91
2023-03-19T12:15:08.660Z,98012.25
2023-03-19T12:17:22.656Z,98011.41
2023-03-19T12:19:50.488Z,98004.47
2023-03-19T12:22:00.429Z,98010.41
2023-03-19T12:24:05.952Z,98001.16
2023-03-19T12:26:09.943Z,98005.13
2023-03-19T12:28:19.509Z,97999.41
2023-03-19T12:30:31.889Z,97997.38
2023-03-19T12:32:46.481Z,97990.72
2023-03-19T12:34:52.254Z,97990.25
2023-03-19T12:37:00.539Z,97991.94
2023-03-19T12:39:06.976Z,97989.59
2023-03-19T12:41:12.547Z,97994.25
2023-03-19T12:43:19.838Z,97999.38
2023-03-19T12:45:31.018Z,97999.25
2023-03-19T12:47:38.598Z,97991.00
2023-03-19T12:49:43.935Z,97996.28
2023-03-19T12:51:52.064Z,97987.16
2023-03-19T12:53:57.836Z,97990.59
2023-03-19T12:56:06.141Z,97987.22
2023-03-19T12:58:15.631Z,97987.84
2023-03-19T13:00:22.017Z,97986.56
2023-03-19T13:02:32.154Z,97984.78
2023-03-19T13:04:40.111Z,97976.38
2023-03-19T13:06:49.251Z,97977.94
2023-03-19T13:08:57.269Z,97965.84
2023-03-19T13:11:00.806Z,97966.78
2023-03-19T13:13:14.116Z,97973.53
2023-03-19T13:15:21.552Z,97968.38
2023-03-19T13:17:31.842Z,97963.91
2023-03-19T13:19:41.428Z,97968.88
2023-03-19T13:21:44.665Z,97967.75
2023-03-19T13:23:49.754Z,97962.97
2023-03-19T13:25:53.888Z,97969.59
2023-03-19T13:27:57.220Z,97962.97
2023-03-19T13:30:07.479Z,97966.28
2023-03-19T13:32:26.682Z,97972.03
2023-03-19T13:34:32.478Z,97971.50
2023-03-19T13:36:38.276Z,97965.28
2023-03-19T13:38:43.594Z,97965.78
2023-03-19T13:40:48.971Z,97964.50
2023-03-19T13:42:57.626Z,97964.44
2023-03-19T13:45:03.974Z,97971.25
2023-03-19T13:47:42.408Z,97979.03
2023-03-19T13:50:05.661Z,97971.94
2023-03-19T13:52:46.204Z,97981.50
2023-03-19T13:54:53.979Z,97977.25
2023-03-19T13:57:06.798Z,97976.38
2023-03-19T13:59:25.167Z,97989.19
2023-03-19T14:01:44.573Z,97982.88
2023-03-19T14:03:56.159Z,97994.59
2023-03-19T14:06:00.192Z,98003.66
2023-03-19T14:08:17.126Z,98006.03
2023-03-19T14:10:25.260Z,98017.97
2023-03-19T14:12:33.060Z,98017.16
2023-03-19T14:14:41.476Z,98021.72
2023-03-19T14:16:47.502Z,98032.94
2023-03-19T14:18:51.098Z,98033.91
2023-03-19T14:21:06.399Z,98018.25
2023-03-19T14:23:23.833Z,98003.31
2023-03-19T14:25:55.084Z,98013.50
2023-03-19T14:28:00.760Z,98000.34
2023-03-19T14:30:11.192Z,97993.44
2023-03-19T14:32:17.846Z,97984.47
2023-03-19T14:34:22.864Z,97973.25
2023-03-19T14:36:28.046Z,97969.69
2023-03-19T14:38:37.499Z,97970.53
2023-03-19T14:40:44.439Z,97981.56
2023-03-19T14:42:57.560Z,97979.78
2023-03-19T14:45:42.194Z,97982.69
2023-03-19T14:48:25.300Z,97986.84
2023-03-19T14:50:49.430Z,97981.31
2023-03-19T14:52:59.282Z,97988.91
2023-03-19T14:55:03.635Z,97996.34
2023-03-19T14:57:10.202Z,97996.06
2023-03-19T14:59:15.350Z,97995.25
2023-03-19T15:01:19.298Z,97997.75
2023-03-19T15:03:24.434Z,98000.38
2023-03-19T15:05:30.603Z,97995.25
2023-03-19T15:07:35.333Z,97997.22
2023-03-19T15:09:39.984Z,97999.13
2023-03-19T15:12:01.662Z,97988.91
2023-03-19T15:14:44.111Z,97992.66
2023-03-19T15:16:52.105Z,97993.59
2023-03-19T15:18:55.583Z,97994.31
2023-03-19T15:20:58.950Z,97990.59
2023-03-19T15:23:05.803Z,98003.16
2023-03-19T15:25:16.640Z,98013.28
2023-03-19T15:27:21.362Z,98006.34
2023-03-19T15:29:32.153Z,98012.72
2023-03-19T15:32:04.442Z,98009.38
2023-03-19T15:34:19.213Z,98009.66
2023-03-19T15:36:25.966Z,98019.34
2023-03-19T15:38:34.510Z,98012.72
2023-03-19T15:40:39.571Z,98013.81
2023-03-19T15:42:43.253Z,98008.56
2023-03-19T15:44:49.610Z,98023.94
2023-03-19T15:46:53.002Z,98024.47
2023-03-19T15:48:59.495Z,98027.78
2023-03-19T15:51:03.653Z,98024.88
2023-03-19T15:53:09.462Z,98027.50
2023-03-19T15:55:13.940Z,98027.66
2023-03-19T15:57:19.038Z,98021.56
2023-03-19T15:59:26.647Z,98030.41
2023-03-19T16:01:31.268Z,98031.28
2023-03-19T16:03:38.841Z,98031.94
2023-03-19T16:05:42.073Z,98029.88
2023-03-19T16:07:45.526Z,98030.81
2023-03-19T16:09:48.708Z,98037.91
2023-03-19T16:11:52.560Z,98026.81
2023-03-19T16:13:59.116Z,98027.78
2023-03-19T16:16:04.693Z,98037.47
2023-03-19T16:18:11.326Z,98031.28
2023-03-19T16:20:15.807Z,98038.16
2023-03-19T16:22:22.225Z,98037.91
2023-03-19T16:24:27.500Z,98042.34
2023-03-19T16:26:32.845Z,98044.28
2023-03-19T16:28:35.892Z,98047.03
2023-03-19T16:30:47.328Z,98045.38
2023-03-19T16:32:59.815Z,98055.06
2023-03-19T16:35:06.194Z,98057.97
2023-03-19T16:37:29.170Z,98063.63
2023-03-19T16:39:36.449Z,98056.00
2023-03-19T16:41:39.586Z,98064.16
2023-03-19T16:43:46.233Z,98079.47
2023-03-19T16:46:05.634Z,98079.19
2023-03-19T16:48:09.724Z,98080.84
2023-03-19T16:50:13.663Z,98093.34
2023-03-19T16:52:19.478Z,98091.34
2023-03-19T16:54:23.827Z,98089.88
2023-03-19T16:56:27.045Z,98101.16
2023-03-19T16:58:32.070Z,98113.63
2023-03-19T17:00:35.783Z,98108.28
2023-03-19T17:02:40.340Z,98117.97
2023-03-19T17:04:43.670Z,98115.41
2023-03-19T17:06:47.086Z,98124.13
2023-03-19T17:08:50.399Z,98125.00
2023-03-19T17:10:54.688Z,98133.84
2023-03-19T17:12:58.155Z,98125.31
2023-03-19T17:15:01.439Z,98131.03
2023-03-19T17:17:04.654Z,98136.06
2023-03-19T17:19:18.425Z,98138.00
2023-03-19T17:21:23.760Z,98142.03
2023-03-19T17:23:27.307Z,98139.19
2023-03-19T17:25:30.682Z,98153.72
2023-03-19T17:27:34.812Z,98149.53
2023-03-19T17:29:37.955Z,98155.63
2023-03-19T17:31:41.161Z,98147.25
2023-03-19T17:33:44.247Z,98154.41
2023-03-19T17:35:48.785Z,98151.44
2023-03-19T17:37:52.616Z,98160.63
2023-03-19T17:39:55.900Z,98160.38
2023-03-19T17:41:59.173Z,98164.69
2023-03-19T17:44:05.030Z,98159.44
2023-03-19T17:46:12.704Z,98174.19
2023-03-19T17:48:21.333Z,98173.94
2023-03-19T17:50:26.613Z,98174.56
2023-03-19T17:52:31.301Z,98165.63
2023-03-19T17:54:34.410Z,98158.47
2023-03-19T17:56:37.502Z,98162.19
2023-03-19T17:58:40.629Z,98166.22
2023-03-19T18:00:43.929Z,98165.03
2023-03-19T18:02:47.802Z,98163.47
2023-03-19T18:04:52.624Z,98159.91
2023-03-19T18:06:57.408Z,98166.09
2023-03-19T18:09:02.098Z,98170.75
2023-03-19T18:11:05.345Z,98176.81
2023-03-19T18:13:08.433Z,98175.63
2023-03-19T18:15:12.380Z,98177.28
2023-03-19T18:17:16.928Z,98180.75
2023-03-19T18:19:32.082Z,98186.81
2023-03-19T18:21:35.359Z,98192.63
2023-03-19T18:23:38.550Z,98193.50
2023-03-19T18:25:43.963Z,98207.88
2023-03-19T18:27:47.206Z,98216.47
2023-03-19T18:29:50.413Z,98212.06
2023-03-19T18:31:53.817Z,98214.56
2023-03-19T18:34:00.115Z,98217.53
2023-03-19T18:36:03.535Z,98221.66
2023-03-19T18:38:07.723Z,98228.69
2023-03-19T18:40:15.670Z,98223.47
2023-03-19T18:42:20.212Z,98223.22
2023-03-19T18:44:24.188Z,98223.22
2023-03-19T18:46:29.697Z,98233.34
2023-03-19T18:48:33.788Z,98233.25
2023-03-19T18:50:37.022Z,98241.69
2023-03-19T18:52:40.329Z,98232.31
2023-03-19T18:54:43.509Z,98229.91
2023-03-19T18:56:48.434Z,98231.31
2023-03-19T18:58:53.587Z,98233.84
2023-03-19T19:00:56.917Z,98236.44
2023-03-19T19:03:01.620Z,98234.69
2023-03-19T19:05:05.509Z,98231.31
2023-03-19T19:07:09.169Z,98235.88
2023-03-19T19:09:12.518Z,98231.31
2023-03-19T19:11:16.715Z,98232.72
2023-03-19T19:13:22.359Z,98234.63
2023-03-19T19:15:29.970Z,98231.91
2023-03-19T19:17:33.377Z,98236.19
2023-03-19T19:19:36.575Z,98236.19
2023-03-19T19:21:39.681Z,98237.03
2023-03-19T19:23:43.758Z,98238.81
2023-03-19T19:25:50.978Z,98234.63
2023-03-19T19:27:57.888Z,98237.47
2023-03-19T19:30:01.497Z,98242.84
2023-03-19T19:32:07.234Z,98240.09
2023-03-19T19:34:12.360Z,98240.09
2023-03-19T19:36:15.457Z,98241.78
2023-03-19T19:38:18.709Z,98240.94
2023-03-19T19:40:23.544Z,98246.16
2023-03-19T19:42:26.691Z,98251.50
2023-03-19T19:44:30.111Z,98257.72
2023-03-19T19:46:33.554Z,98260.34
2023-03-19T19:48:38.422Z,98258.53
2023-03-19T19:50:41.676Z,98264.59
2023-03-19T19:52:44.811Z,98260.34
2023-03-19T19:54:48.578Z,98260.47
2023-03-19T19:56:52.354Z,98262.56
2023-03-19T19:58:57.463Z,98261.97
2023-03-19T20:01:04.188Z,98262.19
2023-03-19T20:03:07.792Z,98267.44
2023-03-19T20:05:17.961Z,98273.63
2023-03-19T20:07:21.140Z,98272.75
2023-03-19T20:09:24.469Z,98279.06
2023-03-19T20:11:27.894Z,98273.94
2023-03-19T20:13:34.052Z,98275.59
2023-03-19T20:15:37.539Z,98273.81
2023-03-19T20:17:41.426Z,98276.56
2023-03-19T20:19:45.016Z,98275.22
2023-03-19T20:21:49.959Z,98276.72
2023-03-19T20:23:55.446Z,98278.72
2023-03-19T20:25:59.768Z,98278.94
2023-03-19T20:28:03.810Z,98285.13
2023-03-19T20:30:09.118Z,98278.25
2023-03-19T20:32:26.226Z,98282.63
2023-03-19T20:34:39.017Z,98276.19
2023-03-19T20:36:42.767Z,98275.31
2023-03-19T20:38:47.226Z,98284.16
2023-03-19T20:40:52.895Z,98284.03
2023-03-19T20:42:56.177Z,98289.38
2023-03-19T20:44:59.938Z,98291.28
2023-03-19T20:47:03.094Z,98299.94
2023-03-19T20:49:06.333Z,98306.97
2023-03-19T20:51:17.327Z,98313.13
2023-03-19T20:53:20.588Z,98317.66
2023-03-19T20:55:27.103Z,98309.81
2023-03-19T20:57:30.852Z,98316.59
2023-03-19T20:59:34.138Z,98317.44
2023-03-19T21:01:37.377Z,98313.84
2023-03-19T21:03:40.552Z,98319.09
2023-03-19T21:05:43.814Z,98317.44
2023-03-19T21:07:48.242Z,98317.88
2023-03-19T21:09:51.444Z,98323.53
2023-03-19T21:11:56.056Z,98326.88
2023-03-19T21:13:59.391Z,98326.06
2023-03-19T21:16:02.853Z,98325.09
2023-03-19T21:18:06.145Z,98321.66
2023-03-19T21:20:11.261Z,98314.72
2023-03-19T21:22:15.217Z,98316.63
2023-03-19T21:24:19.506Z,98329.59
2023-03-19T21:26:23.159Z,98329.72
2023-03-19T21:28:30.629Z,98324.38
2023-03-19T21:30:35.292Z,98331.41
2023-03-19T21:32:38.943Z,98325.31
2023-03-19T21:34:41.993Z,98328.78
2023-03-19T21:36:45.726Z,98329.22
2023-03-19T21:38:50.848Z,98332.75
2023-03-19T21:40:56.618Z,98331.06
2023-03-19T21:43:02.135Z,98324.31
2023-03-19T21:45:07.954Z,98340.09
2023-03-19T21:47:13.347Z,98336.13
2023-03-19T21:49:16.891Z,98336.47
2023-03-19T21:51:20.415Z,98334.06
2023-03-19T21:53:23.824Z,98331.75
2023-03-19T21:55:31.701Z,98335.44
2023-03-19T21:57:34.805Z,98334.69
2023-03-19T21:59:38.656Z,98333.16
2023-03-19T22:01:43.134Z,98331.59
2023-03-19T22:03:46.584Z,98336.09
2023-03-19T22:05:51.237Z,98331.78
2023-03-19T22:07:54.735Z,98331.19
2023-03-19T22:09:57.826Z,98341.19
2023-03-19T22:12:01.412Z,98340.81
2023-03-19T22:14:09.485Z,98340.09
2023-03-19T22:16:18.795Z,98339.22
2023-03-19T22:18:24.188Z,98339.31
2023-03-19T22:20:27.380Z,98339.22
2023-03-19T22:22:32.288Z,98352.28
2023-03-19T22:24:35.543Z,98350.63
2023-03-19T22:26:40.013Z,98352.50
2023-03-19T22:28:43.126Z,98350.94
2023-03-19T22:30:47.476Z,98352.94
2023-03-19T22:32:50.674Z,98359.09
2023-03-19T22:34:55.257Z,98359.09
2023-03-19T22:36:58.483Z,98359.22
2023-03-19T22:39:01.554Z,98361.09
2023-03-19T22:41:04.923Z,98359.31
2023-03-19T22:43:17.663Z,98361.09
2023-03-19T22:45:25.052Z,98365.47
2023-03-19T22:47:28.341Z,98365.66
2023-03-19T22:49:32.086Z,98377.81
2023-03-19T22:51:36.536Z,98360.66
2023-03-19T22:53:39.639Z,98365.97
2023-03-19T22:55:42.798Z,98370.28
2023-03-19T22:57:46.324Z,98376.44
2023-03-19T22:59:51.207Z,98374.69
2023-03-19T23:01:54.355Z,98379.25
2023-03-19T23:03:57.902Z,98387.19
2023-03-19T23:06:03.414Z,98383.66
2023-03-19T23:08:08.407Z,98385.31
2023-03-19T23:10:17.133Z,98385.31
2023-03-19T23:12:20.828Z,98373.19
2023-03-19T23:14:31.706Z,98391.47
2023-03-19T23:16:34.935Z,98389.03
2023-03-19T23:18:38.491Z,98384.03
2023-03-19T23:20:41.926Z,98394.38
2023-03-19T23:22:45.777Z,98389.88
2023-03-19T23:24:50.519Z,98391.75
2023-03-19T23:26:55.651Z,98390.94
2023-03-19T23:29:02.660Z,98393.44
2023-03-19T23:31:07.297Z,98395.19
2023-03-19T23:33:11.689Z,98391.84
2023-03-19T23:35:17.754Z,98394.38
2023-03-19T23:37:21.390Z,98396.03
2023-03-19T23:39:25.577Z,98395.19
2023-03-19T23:41:30.139Z,98399.69
2023-03-19T23:43:33.442Z,98401.47
2023-03-19T23:45:38.978Z,98403.22
2023-03-19T23:47:42.035Z,98403.22
2023-03-19T23:49:45.093Z,98398.97
2023-03-19T23:51:48.186Z,98397.19
2023-03-19T23:53:51.311Z,98401.38
2023-03-19T23:55:56.052Z,98398.66
2023-03-19T23:58:00.894Z,98402.09
